sensor_id;sensor_type;location;lat;lon;timestamp;temperature;humidity
49549;DHT22;35450;44.518;7.466;2023-01-15T00:01:03;7.10;79.50
49549;DHT22;35450;44.518;7.466;2023-01-15T00:04:07;7.10;79.60
49549;DHT22;35450;44.518;7.466;2023-01-15T00:07:11;7.10;79.10
49549;DHT22;35450;44.518;7.466;2023-01-15T00:10:15;7.00;78.80
49549;DHT22;35450;44.518;7.466;2023-01-15T00:13:19;6.90;79.60
49549;DHT22;35450;44.518;7.466;2023-01-15T00:16:24;6.90;80.20
49549;DHT22;35450;44.518;7.466;2023-01-15T00:19:29;6.90;80.10
49549;DHT22;35450;44.518;7.466;2023-01-15T00:22:33;6.90;80.10
49549;DHT22;35450;44.518;7.466;2023-01-15T00:25:37;6.80;80.60
49549;DHT22;35450;44.518;7.466;2023-01-15T00:28:59;6.90;80.50
49549;DHT22;35450;44.518;7.466;2023-01-15T00:35:32;6.90;81.60
49549;DHT22;35450;44.518;7.466;2023-01-15T00:38:36;7.00;81.60
49549;DHT22;35450;44.518;7.466;2023-01-15T00:41:40;7.00;81.70
49549;DHT22;35450;44.518;7.466;2023-01-15T00:44:44;7.00;81.70
49549;DHT22;35450;44.518;7.466;2023-01-15T00:47:49;7.10;81.40
49549;DHT22;35450;44.518;7.466;2023-01-15T00:50:53;7.00;81.30
49549;DHT22;35450;44.518;7.466;2023-01-15T00:53:58;7.00;81.30
49549;DHT22;35450;44.518;7.466;2023-01-15T00:57:02;7.10;81.20
49549;DHT22;35450;44.518;7.466;2023-01-15T01:00:07;7.10;81.20
49549;DHT22;35450;44.518;7.466;2023-01-15T01:03:11;7.00;81.50
49549;DHT22;35450;44.518;7.466;2023-01-15T01:06:16;7.00;81.70
49549;DHT22;35450;44.518;7.466;2023-01-15T01:09:20;7.10;81.70
49549;DHT22;35450;44.518;7.466;2023-01-15T01:12:24;7.00;82.00
49549;DHT22;35450;44.518;7.466;2023-01-15T01:15:29;7.00;82.30
49549;DHT22;35450;44.518;7.466;2023-01-15T01:18:34;7.00;82.10
49549;DHT22;35450;44.518;7.466;2023-01-15T01:21:38;7.00;82.10
49549;DHT22;35450;44.518;7.466;2023-01-15T01:24:42;6.90;81.90
49549;DHT22;35450;44.518;7.466;2023-01-15T01:27:48;6.90;81.60
49549;DHT22;35450;44.518;7.466;2023-01-15T01:30:51;7.00;81.80
49549;DHT22;35450;44.518;7.466;2023-01-15T01:33:57;7.00;82.00
49549;DHT22;35450;44.518;7.466;2023-01-15T01:37:02;6.90;82.40
49549;DHT22;35450;44.518;7.466;2023-01-15T01:40:07;6.90;82.50
49549;DHT22;35450;44.518;7.466;2023-01-15T01:43:19;7.00;82.60
49549;DHT22;35450;44.518;7.466;2023-01-15T01:46:25;7.00;82.70
49549;DHT22;35450;44.518;7.466;2023-01-15T01:49:29;7.00;82.90
49549;DHT22;35450;44.518;7.466;2023-01-15T01:52:48;7.00;83.00
49549;DHT22;35450;44.518;7.466;2023-01-15T01:55:55;6.90;83.60
49549;DHT22;35450;44.518;7.466;2023-01-15T01:58:59;7.00;83.60
49549;DHT22;35450;44.518;7.466;2023-01-15T02:02:04;7.10;83.50
49549;DHT22;35450;44.518;7.466;2023-01-15T02:05:08;7.00;83.60
49549;DHT22;35450;44.518;7.466;2023-01-15T02:08:16;7.10;83.40
49549;DHT22;35450;44.518;7.466;2023-01-15T02:11:22;7.00;83.10
49549;DHT22;35450;44.518;7.466;2023-01-15T02:14:37;7.00;82.50
49549;DHT22;35450;44.518;7.466;2023-01-15T02:17:54;7.00;83.20
49549;DHT22;35450;44.518;7.466;2023-01-15T02:21:05;6.80;82.60
49549;DHT22;35450;44.518;7.466;2023-01-15T02:27:27;6.70;82.50
49549;DHT22;35450;44.518;7.466;2023-01-15T02:30:37;6.70;83.00
49549;DHT22;35450;44.518;7.466;2023-01-15T02:34:13;6.80;83.00
49549;DHT22;35450;44.518;7.466;2023-01-15T02:37:19;6.80;82.50
49549;DHT22;35450;44.518;7.466;2023-01-15T02:40:26;6.80;83.40
49549;DHT22;35450;44.518;7.466;2023-01-15T02:43:35;6.80;84.50
49549;DHT22;35450;44.518;7.466;2023-01-15T02:46:42;6.80;84.60
49549;DHT22;35450;44.518;7.466;2023-01-15T02:50:13;6.80;84.70
49549;DHT22;35450;44.518;7.466;2023-01-15T02:53:21;6.80;84.80
49549;DHT22;35450;44.518;7.466;2023-01-15T02:56:30;6.90;84.40
49549;DHT22;35450;44.518;7.466;2023-01-15T02:59:42;6.90;84.00
49549;DHT22;35450;44.518;7.466;2023-01-15T03:02:58;6.80;84.30
49549;DHT22;35450;44.518;7.466;2023-01-15T03:06:15;6.90;84.00
49549;DHT22;35450;44.518;7.466;2023-01-15T03:09:21;6.90;84.00
49549;DHT22;35450;44.518;7.466;2023-01-15T03:12:43;6.90;83.70
49549;DHT22;35450;44.518;7.466;2023-01-15T03:17:08;6.90;83.60
49549;DHT22;35450;44.518;7.466;2023-01-15T03:20:18;6.90;83.80
49549;DHT22;35450;44.518;7.466;2023-01-15T03:23:25;6.90;83.60
49549;DHT22;35450;44.518;7.466;2023-01-15T03:26:31;6.90;84.40
49549;DHT22;35450;44.518;7.466;2023-01-15T03:29:43;6.80;84.10
49549;DHT22;35450;44.518;7.466;2023-01-15T03:32:49;6.70;84.40
49549;DHT22;35450;44.518;7.466;2023-01-15T03:35:58;6.80;84.40
49549;DHT22;35450;44.518;7.466;2023-01-15T03:39:15;6.90;84.40
49549;DHT22;35450;44.518;7.466;2023-01-15T03:45:53;6.70;84.60
49549;DHT22;35450;44.518;7.466;2023-01-15T03:56:07;6.80;84.40
49549;DHT22;35450;44.518;7.466;2023-01-15T03:59:27;6.80;84.00
49549;DHT22;35450;44.518;7.466;2023-01-15T04:02:38;6.80;83.60
49549;DHT22;35450;44.518;7.466;2023-01-15T04:05:43;6.80;83.70
49549;DHT22;35450;44.518;7.466;2023-01-15T04:08:47;6.80;84.00
49549;DHT22;35450;44.518;7.466;2023-01-15T04:11:52;6.70;83.80
49549;DHT22;35450;44.518;7.466;2023-01-15T04:14:56;6.70;83.80
49549;DHT22;35450;44.518;7.466;2023-01-15T04:18:00;6.70;83.60
49549;DHT22;35450;44.518;7.466;2023-01-15T04:21:07;6.70;83.40
49549;DHT22;35450;44.518;7.466;2023-01-15T04:24:12;6.80;83.50
49549;DHT22;35450;44.518;7.466;2023-01-15T04:27:16;6.70;83.60
49549;DHT22;35450;44.518;7.466;2023-01-15T04:30:20;6.60;83.50
49549;DHT22;35450;44.518;7.466;2023-01-15T04:33:25;6.60;83.40
49549;DHT22;35450;44.518;7.466;2023-01-15T04:36:29;6.70;83.40
49549;DHT22;35450;44.518;7.466;2023-01-15T04:39:33;6.70;82.80
49549;DHT22;35450;44.518;7.466;2023-01-15T04:42:37;6.60;82.30
49549;DHT22;35450;44.518;7.466;2023-01-15T04:46:00;6.60;82.20
49549;DHT22;35450;44.518;7.466;2023-01-15T04:49:05;6.60;82.50
49549;DHT22;35450;44.518;7.466;2023-01-15T04:52:09;6.70;82.60
49549;DHT22;35450;44.518;7.466;2023-01-15T04:55:13;6.70;82.50
49549;DHT22;35450;44.518;7.466;2023-01-15T04:58:17;6.70;83.10
49549;DHT22;35450;44.518;7.466;2023-01-15T05:01:21;6.60;83.40
49549;DHT22;35450;44.518;7.466;2023-01-15T05:07:53;6.50;83.60
49549;DHT22;35450;44.518;7.466;2023-01-15T05:11:02;6.50;84.10
49549;DHT22;35450;44.518;7.466;2023-01-15T05:14:06;6.30;84.80
49549;DHT22;35450;44.518;7.466;2023-01-15T05:17:10;6.30;86.10
49549;DHT22;35450;44.518;7.466;2023-01-15T05:20:14;6.40;86.00
49549;DHT22;35450;44.518;7.466;2023-01-15T05:23:18;6.40;85.60
49549;DHT22;35450;44.518;7.466;2023-01-15T05:26:22;6.20;85.90
49549;DHT22;35450;44.518;7.466;2023-01-15T05:29:27;6.30;85.90
49549;DHT22;35450;44.518;7.466;2023-01-15T05:32:31;6.30;86.00
49549;DHT22;35450;44.518;7.466;2023-01-15T05:35:35;6.40;85.60
49549;DHT22;35450;44.518;7.466;2023-01-15T05:38:39;6.30;85.40
49549;DHT22;35450;44.518;7.466;2023-01-15T05:41:43;6.40;85.60
49549;DHT22;35450;44.518;7.466;2023-01-15T05:44:53;6.30;85.90
49549;DHT22;35450;44.518;7.466;2023-01-15T05:47:57;6.30;86.20
49549;DHT22;35450;44.518;7.466;2023-01-15T05:51:01;6.30;86.00
49549;DHT22;35450;44.518;7.466;2023-01-15T05:54:11;6.30;86.10
49549;DHT22;35450;44.518;7.466;2023-01-15T05:57:15;6.10;86.30
49549;DHT22;35450;44.518;7.466;2023-01-15T06:00:20;6.10;87.10
49549;DHT22;35450;44.518;7.466;2023-01-15T06:03:25;6.10;86.50
49549;DHT22;35450;44.518;7.466;2023-01-15T06:06:30;6.20;86.90
49549;DHT22;35450;44.518;7.466;2023-01-15T06:09:33;6.10;86.40
49549;DHT22;35450;44.518;7.466;2023-01-15T06:12:37;6.20;86.70
49549;DHT22;35450;44.518;7.466;2023-01-15T06:15:42;6.10;86.80
49549;DHT22;35450;44.518;7.466;2023-01-15T06:18:46;6.10;87.50
49549;DHT22;35450;44.518;7.466;2023-01-15T06:21:49;6.00;87.40
49549;DHT22;35450;44.518;7.466;2023-01-15T06:24:53;6.10;86.50
49549;DHT22;35450;44.518;7.466;2023-01-15T06:27:58;6.20;86.50
49549;DHT22;35450;44.518;7.466;2023-01-15T06:31:06;6.20;86.80
49549;DHT22;35450;44.518;7.466;2023-01-15T06:34:11;6.20;86.80
49549;DHT22;35450;44.518;7.466;2023-01-15T06:37:14;6.10;86.50
49549;DHT22;35450;44.518;7.466;2023-01-15T06:40:18;6.10;86.60
49549;DHT22;35450;44.518;7.466;2023-01-15T06:43:22;6.10;87.00
49549;DHT22;35450;44.518;7.466;2023-01-15T06:46:47;6.10;87.20
49549;DHT22;35450;44.518;7.466;2023-01-15T06:50:10;6.10;87.00
49549;DHT22;35450;44.518;7.466;2023-01-15T06:53:14;6.20;86.70
49549;DHT22;35450;44.518;7.466;2023-01-15T06:56:18;6.10;86.20
49549;DHT22;35450;44.518;7.466;2023-01-15T06:59:22;6.10;86.20
49549;DHT22;35450;44.518;7.466;2023-01-15T07:02:27;6.10;86.00
49549;DHT22;35450;44.518;7.466;2023-01-15T07:05:31;6.10;85.60
49549;DHT22;35450;44.518;7.466;2023-01-15T07:08:35;6.10;85.40
49549;DHT22;35450;44.518;7.466;2023-01-15T07:11:39;6.10;85.10
49549;DHT22;35450;44.518;7.466;2023-01-15T07:14:52;6.00;85.50
49549;DHT22;35450;44.518;7.466;2023-01-15T07:17:56;5.70;85.90
49549;DHT22;35450;44.518;7.466;2023-01-15T07:21:00;5.80;85.50
49549;DHT22;35450;44.518;7.466;2023-01-15T07:24:05;5.90;86.00
49549;DHT22;35450;44.518;7.466;2023-01-15T07:27:09;5.90;86.00
49549;DHT22;35450;44.518;7.466;2023-01-15T07:30:14;5.80;86.00
49549;DHT22;35450;44.518;7.466;2023-01-15T07:33:18;5.90;85.70
49549;DHT22;35450;44.518;7.466;2023-01-15T07:36:22;5.80;85.90
49549;DHT22;35450;44.518;7.466;2023-01-15T07:39:29;5.80;85.80
49549;DHT22;35450;44.518;7.466;2023-01-15T07:42:33;5.90;85.70
49549;DHT22;35450;44.518;7.466;2023-01-15T07:45:56;5.80;85.90
49549;DHT22;35450;44.518;7.466;2023-01-15T07:49:18;5.60;86.70
49549;DHT22;35450;44.518;7.466;2023-01-15T07:52:41;5.80;86.70
49549;DHT22;35450;44.518;7.466;2023-01-15T07:55:45;5.90;85.90
49549;DHT22;35450;44.518;7.466;2023-01-15T07:58:49;5.80;85.70
49549;DHT22;35450;44.518;7.466;2023-01-15T08:01:57;5.80;86.10
49549;DHT22;35450;44.518;7.466;2023-01-15T08:05:01;5.80;86.10
49549;DHT22;35450;44.518;7.466;2023-01-15T08:08:05;5.90;86.10
49549;DHT22;35450;44.518;7.466;2023-01-15T08:11:09;6.00;86.60
49549;DHT22;35450;44.518;7.466;2023-01-15T08:14:31;6.00;86.80
49549;DHT22;35450;44.518;7.466;2023-01-15T08:17:54;5.90;86.20
49549;DHT22;35450;44.518;7.466;2023-01-15T08:20:58;5.80;86.90
49549;DHT22;35450;44.518;7.466;2023-01-15T08:24:02;5.80;86.70
49549;DHT22;35450;44.518;7.466;2023-01-15T08:27:06;5.80;87.30
49549;DHT22;35450;44.518;7.466;2023-01-15T08:30:13;5.80;87.40
49549;DHT22;35450;44.518;7.466;2023-01-15T08:33:17;5.70;88.00
49549;DHT22;35450;44.518;7.466;2023-01-15T08:36:21;5.80;88.00
49549;DHT22;35450;44.518;7.466;2023-01-15T08:39:28;5.90;87.50
49549;DHT22;35450;44.518;7.466;2023-01-15T08:42:33;6.00;87.20
49549;DHT22;35450;44.518;7.466;2023-01-15T08:45:36;6.00;86.90
49549;DHT22;35450;44.518;7.466;2023-01-15T08:48:40;6.00;87.40
49549;DHT22;35450;44.518;7.466;2023-01-15T08:51:45;6.00;87.20
49549;DHT22;35450;44.518;7.466;2023-01-15T08:54:52;6.00;87.20
49549;DHT22;35450;44.518;7.466;2023-01-15T08:57:56;6.10;87.50
49549;DHT22;35450;44.518;7.466;2023-01-15T09:01:06;6.20;88.00
49549;DHT22;35450;44.518;7.466;2023-01-15T09:04:15;6.20;88.10
49549;DHT22;35450;44.518;7.466;2023-01-15T09:07:19;6.20;88.30
49549;DHT22;35450;44.518;7.466;2023-01-15T09:10:24;6.20;88.50
49549;DHT22;35450;44.518;7.466;2023-01-15T09:13:28;6.10;89.70
49549;DHT22;35450;44.518;7.466;2023-01-15T09:16:33;5.80;90.10
49549;DHT22;35450;44.518;7.466;2023-01-15T09:19:38;5.80;90.30
49549;DHT22;35450;44.518;7.466;2023-01-15T09:22:42;5.90;90.20
49549;DHT22;35450;44.518;7.466;2023-01-15T09:25:56;5.90;90.20
49549;DHT22;35450;44.518;7.466;2023-01-15T09:29:02;6.20;90.00
49549;DHT22;35450;44.518;7.466;2023-01-15T09:32:07;6.40;89.50
49549;DHT22;35450;44.518;7.466;2023-01-15T09:35:13;6.50;88.50
49549;DHT22;35450;44.518;7.466;2023-01-15T09:38:20;6.50;88.40
49549;DHT22;35450;44.518;7.466;2023-01-15T09:41:26;6.40;87.70
49549;DHT22;35450;44.518;7.466;2023-01-15T09:51:39;6.90;88.00
49549;DHT22;35450;44.518;7.466;2023-01-15T09:55:01;7.00;86.70
49549;DHT22;35450;44.518;7.466;2023-01-15T09:58:09;7.10;86.10
49549;DHT22;35450;44.518;7.466;2023-01-15T10:01:18;7.20;85.10
49549;DHT22;35450;44.518;7.466;2023-01-15T10:04:50;7.30;84.50
49549;DHT22;35450;44.518;7.466;2023-01-15T10:08:14;7.30;84.20
49549;DHT22;35450;44.518;7.466;2023-01-15T10:11:25;7.30;84.20
49549;DHT22;35450;44.518;7.466;2023-01-15T10:15:05;7.30;83.90
49549;DHT22;35450;44.518;7.466;2023-01-15T10:18:14;7.30;84.00
49549;DHT22;35450;44.518;7.466;2023-01-15T10:24:57;7.40;84.80
49549;DHT22;35450;44.518;7.466;2023-01-15T10:28:19;7.40;85.10
49549;DHT22;35450;44.518;7.466;2023-01-15T10:31:40;7.50;85.10
49549;DHT22;35450;44.518;7.466;2023-01-15T10:38:30;7.60;86.00
49549;DHT22;35450;44.518;7.466;2023-01-15T10:41:48;7.60;86.30
49549;DHT22;35450;44.518;7.466;2023-01-15T10:51:39;7.60;88.90
49549;DHT22;35450;44.518;7.466;2023-01-15T10:55:16;7.70;89.50
49549;DHT22;35450;44.518;7.466;2023-01-15T10:58:16;7.70;89.90
49549;DHT22;35450;44.518;7.466;2023-01-15T11:01:24;7.80;89.90
49549;DHT22;35450;44.518;7.466;2023-01-15T11:04:30;8.00;89.30
49549;DHT22;35450;44.518;7.466;2023-01-15T11:07:40;8.00;88.80
49549;DHT22;35450;44.518;7.466;2023-01-15T11:10:45;8.00;90.00
49549;DHT22;35450;44.518;7.466;2023-01-15T11:13:54;8.00;90.20
49549;DHT22;35450;44.518;7.466;2023-01-15T11:17:27;8.00;90.30
49549;DHT22;35450;44.518;7.466;2023-01-15T11:20:50;8.10;90.00
49549;DHT22;35450;44.518;7.466;2023-01-15T11:23:55;8.10;90.00
49549;DHT22;35450;44.518;7.466;2023-01-15T11:27:00;8.10;90.00
49549;DHT22;35450;44.518;7.466;2023-01-15T11:30:06;8.10;90.30
49549;DHT22;35450;44.518;7.466;2023-01-15T11:33:25;8.10;90.10
49549;DHT22;35450;44.518;7.466;2023-01-15T11:36:30;8.10;90.00
49549;DHT22;35450;44.518;7.466;2023-01-15T11:39:35;8.10;89.80
49549;DHT22;35450;44.518;7.466;2023-01-15T11:42:45;8.20;90.10
49549;DHT22;35450;44.518;7.466;2023-01-15T11:46:27;8.10;90.00
49549;DHT22;35450;44.518;7.466;2023-01-15T11:49:51;8.20;89.90
49549;DHT22;35450;44.518;7.466;2023-01-15T11:53:22;8.20;89.30
49549;DHT22;35450;44.518;7.466;2023-01-15T11:56:27;8.30;89.40
49549;DHT22;35450;44.518;7.466;2023-01-15T11:59:32;8.40;89.20
49549;DHT22;35450;44.518;7.466;2023-01-15T12:02:40;8.50;89.10
49549;DHT22;35450;44.518;7.466;2023-01-15T12:05:59;8.60;89.00
49549;DHT22;35450;44.518;7.466;2023-01-15T12:19:32;8.80;87.70
49549;DHT22;35450;44.518;7.466;2023-01-15T12:23:12;8.70;88.30
49549;DHT22;35450;44.518;7.466;2023-01-15T12:26:37;8.60;88.70
49549;DHT22;35450;44.518;7.466;2023-01-15T12:29:59;8.50;89.00
49549;DHT22;35450;44.518;7.466;2023-01-15T12:39:48;8.60;88.40
49549;DHT22;35450;44.518;7.466;2023-01-15T12:42:54;8.60;88.70
49549;DHT22;35450;44.518;7.466;2023-01-15T12:46:26;8.70;88.70
49549;DHT22;35450;44.518;7.466;2023-01-15T12:49:35;8.70;88.70
49549;DHT22;35450;44.518;7.466;2023-01-15T12:52:44;8.70;88.60
49549;DHT22;35450;44.518;7.466;2023-01-15T12:59:49;8.80;88.20
49549;DHT22;35450;44.518;7.466;2023-01-15T13:03:16;8.80;89.50
49549;DHT22;35450;44.518;7.466;2023-01-15T13:06:22;8.70;89.60
49549;DHT22;35450;44.518;7.466;2023-01-15T13:09:51;8.80;89.50
49549;DHT22;35450;44.518;7.466;2023-01-15T13:20:16;8.90;90.40
49549;DHT22;35450;44.518;7.466;2023-01-15T13:26:49;8.80;91.20
49549;DHT22;35450;44.518;7.466;2023-01-15T13:33:21;8.90;90.90
49549;DHT22;35450;44.518;7.466;2023-01-15T13:36:32;8.90;90.80
49549;DHT22;35450;44.518;7.466;2023-01-15T13:39:42;8.90;90.90
49549;DHT22;35450;44.518;7.466;2023-01-15T13:42:48;8.90;91.00
49549;DHT22;35450;44.518;7.466;2023-01-15T13:45:53;8.90;91.10
49549;DHT22;35450;44.518;7.466;2023-01-15T13:48:58;8.90;91.40
49549;DHT22;35450;44.518;7.466;2023-01-15T13:52:04;8.90;91.40
49549;DHT22;35450;44.518;7.466;2023-01-15T13:55:30;8.90;91.50
49549;DHT22;35450;44.518;7.466;2023-01-15T13:58:38;8.90;91.40
49549;DHT22;35450;44.518;7.466;2023-01-15T14:01:43;8.90;91.40
49549;DHT22;35450;44.518;7.466;2023-01-15T14:04:47;8.90;91.30
49549;DHT22;35450;44.518;7.466;2023-01-15T14:07:51;9.00;91.40
49549;DHT22;35450;44.518;7.466;2023-01-15T14:10:55;9.00;91.50
49549;DHT22;35450;44.518;7.466;2023-01-15T14:34:31;9.00;91.60
49549;DHT22;35450;44.518;7.466;2023-01-15T14:37:56;9.00;91.80
49549;DHT22;35450;44.518;7.466;2023-01-15T14:41:04;9.00;92.00
49549;DHT22;35450;44.518;7.466;2023-01-15T14:44:10;9.00;92.00
49549;DHT22;35450;44.518;7.466;2023-01-15T14:47:28;8.90;92.10
49549;DHT22;35450;44.518;7.466;2023-01-15T14:50:41;8.80;92.30
49549;DHT22;35450;44.518;7.466;2023-01-15T14:53:47;8.80;92.10
49549;DHT22;35450;44.518;7.466;2023-01-15T14:56:55;8.80;91.90
49549;DHT22;35450;44.518;7.466;2023-01-15T15:00:01;8.70;91.70
49549;DHT22;35450;44.518;7.466;2023-01-15T15:03:21;8.60;91.90
49549;DHT22;35450;44.518;7.466;2023-01-15T15:06:32;8.60;92.30
49549;DHT22;35450;44.518;7.466;2023-01-15T15:13:19;8.50;92.90
49549;DHT22;35450;44.518;7.466;2023-01-15T15:16:27;8.50;93.20
49549;DHT22;35450;44.518;7.466;2023-01-15T15:19:41;8.50;93.30
49549;DHT22;35450;44.518;7.466;2023-01-15T15:22:52;8.50;93.20
49549;DHT22;35450;44.518;7.466;2023-01-15T15:26:00;8.40;93.10
49549;DHT22;35450;44.518;7.466;2023-01-15T15:29:10;8.30;93.20
49549;DHT22;35450;44.518;7.466;2023-01-15T15:32:18;8.20;93.20
49549;DHT22;35450;44.518;7.466;2023-01-15T15:35:24;8.00;92.90
49549;DHT22;35450;44.518;7.466;2023-01-15T15:38:29;8.00;93.30
49549;DHT22;35450;44.518;7.466;2023-01-15T15:41:35;8.00;93.80
49549;DHT22;35450;44.518;7.466;2023-01-15T15:44:59;8.10;94.30
49549;DHT22;35450;44.518;7.466;2023-01-15T15:48:29;8.20;94.60
49549;DHT22;35450;44.518;7.466;2023-01-15T15:51:52;8.20;94.70
49549;DHT22;35450;44.518;7.466;2023-01-15T15:55:01;8.20;95.00
49549;DHT22;35450;44.518;7.466;2023-01-15T15:58:16;8.20;95.10
49549;DHT22;35450;44.518;7.466;2023-01-15T16:01:22;8.20;95.10
49549;DHT22;35450;44.518;7.466;2023-01-15T16:04:26;8.30;95.10
49549;DHT22;35450;44.518;7.466;2023-01-15T16:07:33;8.30;95.20
49549;DHT22;35450;44.518;7.466;2023-01-15T16:10:37;8.30;95.40
49549;DHT22;35450;44.518;7.466;2023-01-15T16:13:47;8.30;95.20
49549;DHT22;35450;44.518;7.466;2023-01-15T16:16:52;8.30;95.20
49549;DHT22;35450;44.518;7.466;2023-01-15T16:19:58;8.30;95.30
49549;DHT22;35450;44.518;7.466;2023-01-15T16:23:03;8.40;95.40
49549;DHT22;35450;44.518;7.466;2023-01-15T16:26:14;8.30;95.40
49549;DHT22;35450;44.518;7.466;2023-01-15T16:29:24;8.30;95.40
49549;DHT22;35450;44.518;7.466;2023-01-15T16:32:31;8.30;95.40
49549;DHT22;35450;44.518;7.466;2023-01-15T16:35:35;8.40;95.50
49549;DHT22;35450;44.518;7.466;2023-01-15T16:38:41;8.30;95.40
49549;DHT22;35450;44.518;7.466;2023-01-15T16:41:46;8.30;95.30
49549;DHT22;35450;44.518;7.466;2023-01-15T16:44:59;8.30;95.50
49549;DHT22;35450;44.518;7.466;2023-01-15T16:51:34;8.10;95.90
49549;DHT22;35450;44.518;7.466;2023-01-15T16:54:38;8.20;95.90
49549;DHT22;35450;44.518;7.466;2023-01-15T16:57:43;8.20;96.10
49549;DHT22;35450;44.518;7.466;2023-01-15T17:00:51;8.20;96.30
49549;DHT22;35450;44.518;7.466;2023-01-15T17:03:56;8.20;96.30
49549;DHT22;35450;44.518;7.466;2023-01-15T17:07:13;8.20;96.50
49549;DHT22;35450;44.518;7.466;2023-01-15T17:10:21;8.20;96.50
49549;DHT22;35450;44.518;7.466;2023-01-15T17:13:34;8.20;96.40
49549;DHT22;35450;44.518;7.466;2023-01-15T17:16:38;8.20;96.50
49549;DHT22;35450;44.518;7.466;2023-01-15T17:19:42;8.10;96.50
49549;DHT22;35450;44.518;7.466;2023-01-15T17:22:47;8.10;96.60
49549;DHT22;35450;44.518;7.466;2023-01-15T17:25:53;8.10;96.50
49549;DHT22;35450;44.518;7.466;2023-01-15T17:28:57;8.10;96.50
49549;DHT22;35450;44.518;7.466;2023-01-15T17:32:01;8.00;96.50
49549;DHT22;35450;44.518;7.466;2023-01-15T17:35:08;8.00;96.50
49549;DHT22;35450;44.518;7.466;2023-01-15T17:38:21;8.00;96.40
49549;DHT22;35450;44.518;7.466;2023-01-15T17:41:25;8.00;96.40
49549;DHT22;35450;44.518;7.466;2023-01-15T17:44:29;7.90;96.00
49549;DHT22;35450;44.518;7.466;2023-01-15T17:51:02;7.90;96.10
49549;DHT22;35450;44.518;7.466;2023-01-15T17:54:06;7.90;96.40
49549;DHT22;35450;44.518;7.466;2023-01-15T17:57:10;7.60;95.50
49549;DHT22;35450;44.518;7.466;2023-01-15T18:00:33;7.00;97.00
49549;DHT22;35450;44.518;7.466;2023-01-15T18:03:56;7.00;97.40
49549;DHT22;35450;44.518;7.466;2023-01-15T18:07:21;7.20;96.90
49549;DHT22;35450;44.518;7.466;2023-01-15T18:10:26;7.30;96.40
49549;DHT22;35450;44.518;7.466;2023-01-15T18:13:30;7.40;96.40
49549;DHT22;35450;44.518;7.466;2023-01-15T18:16:34;7.40;96.10
49549;DHT22;35450;44.518;7.466;2023-01-15T18:19:38;7.40;95.90
49549;DHT22;35450;44.518;7.466;2023-01-15T18:22:42;7.50;95.80
49549;DHT22;35450;44.518;7.466;2023-01-15T18:25:47;7.40;95.50
49549;DHT22;35450;44.518;7.466;2023-01-15T18:28:51;7.50;95.30
49549;DHT22;35450;44.518;7.466;2023-01-15T18:31:55;7.50;95.30
49549;DHT22;35450;44.518;7.466;2023-01-15T18:34:59;7.60;95.20
49549;DHT22;35450;44.518;7.466;2023-01-15T18:38:03;7.50;95.10
49549;DHT22;35450;44.518;7.466;2023-01-15T18:41:18;7.40;95.10
49549;DHT22;35450;44.518;7.466;2023-01-15T18:44:38;7.10;95.50
49549;DHT22;35450;44.518;7.466;2023-01-15T18:48:01;7.20;95.60
49549;DHT22;35450;44.518;7.466;2023-01-15T18:51:09;7.30;95.60
49549;DHT22;35450;44.518;7.466;2023-01-15T18:54:13;7.30;95.40
49549;DHT22;35450;44.518;7.466;2023-01-15T18:57:17;7.30;95.30
49549;DHT22;35450;44.518;7.466;2023-01-15T19:00:23;7.30;95.10
49549;DHT22;35450;44.518;7.466;2023-01-15T19:03:27;7.40;94.90
49549;DHT22;35450;44.518;7.466;2023-01-15T19:06:34;7.30;94.30
49549;DHT22;35450;44.518;7.466;2023-01-15T19:09:38;7.20;94.20
49549;DHT22;35450;44.518;7.466;2023-01-15T19:12:42;7.00;95.00
49549;DHT22;35450;44.518;7.466;2023-01-15T19:15:47;7.00;95.50
49549;DHT22;35450;44.518;7.466;2023-01-15T19:19:09;7.00;95.20
49549;DHT22;35450;44.518;7.466;2023-01-15T19:22:14;7.10;94.90
49549;DHT22;35450;44.518;7.466;2023-01-15T19:25:39;6.80;95.10
49549;DHT22;35450;44.518;7.466;2023-01-15T19:28:43;6.90;95.40
49549;DHT22;35450;44.518;7.466;2023-01-15T19:31:47;7.00;95.10
49549;DHT22;35450;44.518;7.466;2023-01-15T19:34:51;7.10;94.90
49549;DHT22;35450;44.518;7.466;2023-01-15T19:37:56;7.00;94.40
49549;DHT22;35450;44.518;7.466;2023-01-15T19:40:59;7.00;94.10
49549;DHT22;35450;44.518;7.466;2023-01-15T19:44:23;6.90;94.50
49549;DHT22;35450;44.518;7.466;2023-01-15T19:47:47;6.90;95.20
49549;DHT22;35450;44.518;7.466;2023-01-15T19:51:10;6.90;95.20
49549;DHT22;35450;44.518;7.466;2023-01-15T19:54:14;6.90;95.10
49549;DHT22;35450;44.518;7.466;2023-01-15T19:57:38;7.00;94.90
49549;DHT22;35450;44.518;7.466;2023-01-15T20:00:44;7.10;94.70
49549;DHT22;35450;44.518;7.466;2023-01-15T20:03:51;7.00;94.50
49549;DHT22;35450;44.518;7.466;2023-01-15T20:06:55;6.90;94.50
49549;DHT22;35450;44.518;7.466;2023-01-15T20:09:59;6.80;95.00
49549;DHT22;35450;44.518;7.466;2023-01-15T20:13:02;6.70;95.30
49549;DHT22;35450;44.518;7.466;2023-01-15T20:16:25;6.80;95.00
49549;DHT22;35450;44.518;7.466;2023-01-15T20:19:30;6.80;95.00
49549;DHT22;35450;44.518;7.466;2023-01-15T20:22:34;6.80;95.20
49549;DHT22;35450;44.518;7.466;2023-01-15T20:25:38;6.70;94.80
49549;DHT22;35450;44.518;7.466;2023-01-15T20:28:44;6.60;95.20
49549;DHT22;35450;44.518;7.466;2023-01-15T20:31:50;6.60;95.20
49549;DHT22;35450;44.518;7.466;2023-01-15T20:34:53;6.70;95.10
49549;DHT22;35450;44.518;7.466;2023-01-15T20:37:58;6.60;95.10
49549;DHT22;35450;44.518;7.466;2023-01-15T20:41:06;6.60;95.60
49549;DHT22;35450;44.518;7.466;2023-01-15T20:44:29;6.70;95.60
49549;DHT22;35450;44.518;7.466;2023-01-15T20:47:52;6.70;95.30
49549;DHT22;35450;44.518;7.466;2023-01-15T20:51:14;6.60;95.50
49549;DHT22;35450;44.518;7.466;2023-01-15T20:54:19;6.60;95.40
49549;DHT22;35450;44.518;7.466;2023-01-15T20:57:22;6.60;95.50
49549;DHT22;35450;44.518;7.466;2023-01-15T21:00:27;6.50;95.50
49549;DHT22;35450;44.518;7.466;2023-01-15T21:03:31;6.50;95.80
49549;DHT22;35450;44.518;7.466;2023-01-15T21:06:35;6.60;95.50
49549;DHT22;35450;44.518;7.466;2023-01-15T21:09:39;6.70;95.10
49549;DHT22;35450;44.518;7.466;2023-01-15T21:12:43;6.40;95.40
49549;DHT22;35450;44.518;7.466;2023-01-15T21:15:54;5.90;95.80
49549;DHT22;35450;44.518;7.466;2023-01-15T21:18:58;6.10;96.00
49549;DHT22;35450;44.518;7.466;2023-01-15T21:22:03;6.30;95.50
49549;DHT22;35450;44.518;7.466;2023-01-15T21:25:08;6.40;94.90
49549;DHT22;35450;44.518;7.466;2023-01-15T21:28:13;6.30;95.00
49549;DHT22;35450;44.518;7.466;2023-01-15T21:31:17;6.40;95.00
49549;DHT22;35450;44.518;7.466;2023-01-15T21:34:21;6.50;95.10
49549;DHT22;35450;44.518;7.466;2023-01-15T21:37:25;6.50;94.50
49549;DHT22;35450;44.518;7.466;2023-01-15T21:40:28;6.50;94.30
49549;DHT22;35450;44.518;7.466;2023-01-15T21:43:32;6.60;94.40
49549;DHT22;35450;44.518;7.466;2023-01-15T21:46:55;6.40;94.50
49549;DHT22;35450;44.518;7.466;2023-01-15T21:49:59;6.40;94.60
49549;DHT22;35450;44.518;7.466;2023-01-15T21:53:05;6.30;94.70
49549;DHT22;35450;44.518;7.466;2023-01-15T21:56:09;6.20;95.30
49549;DHT22;35450;44.518;7.466;2023-01-15T21:59:13;5.80;95.60